createdAt,value
2018-12-08T00:01:06.794Z,156.87
2018-12-08T00:03:32.966Z,147.93
2018-12-08T00:05:59.306Z,154.37
2018-12-08T00:08:25.482Z,148.83
2018-12-08T00:10:51.641Z,132.07
2018-12-08T00:13:17.860Z,131.70
2018-12-08T00:15:44.052Z,144.90
2018-12-08T00:18:10.193Z,92.10
2018-12-08T00:20:36.395Z,20.60
2018-12-08T00:23:02.542Z,14.23
2018-12-08T00:25:28.857Z,12.03
2018-12-08T00:27:55.073Z,18.17
2018-12-08T00:33:20.252Z,16.23
2018-12-08T00:35:46.402Z,11.27
2018-12-08T00:38:12.540Z,9.87
2018-12-08T00:40:38.740Z,9.27
2018-12-08T00:43:05.125Z,9.63
2018-12-08T00:45:32.213Z,10.37
2018-12-08T00:47:59.327Z,7.00
2018-12-08T00:53:10.969Z,10.87
2018-12-08T00:55:37.225Z,10.03
2018-12-08T00:58:03.393Z,65.53
2018-12-08T01:03:09.710Z,78.63
2018-12-08T01:05:35.977Z,81.77
2018-12-08T01:08:02.147Z,79.43
2018-12-08T01:10:28.343Z,65.53
2018-12-08T01:12:54.511Z,70.90
2018-12-08T01:15:20.668Z,73.63
2018-12-08T01:17:46.855Z,71.53
2018-12-08T01:20:13.029Z,59.73
2018-12-08T01:22:39.190Z,60.20
2018-12-08T01:25:05.653Z,63.33
2018-12-08T01:27:31.825Z,46.70
2018-12-08T01:29:57.990Z,58.03
2018-12-08T01:32:24.201Z,55.63
2018-12-08T01:34:50.506Z,53.67
2018-12-08T01:37:16.781Z,47.47
2018-12-08T01:39:42.962Z,46.00
2018-12-08T01:42:09.108Z,41.57
2018-12-08T01:44:35.293Z,35.27
2018-12-08T01:47:01.480Z,53.33
2018-12-08T01:49:27.634Z,38.13
2018-12-08T01:51:54.005Z,50.60
2018-12-08T01:54:20.247Z,40.97
2018-12-08T01:56:46.567Z,43.13
2018-12-08T01:59:12.770Z,51.17
2018-12-08T02:01:39.001Z,46.03
2018-12-08T02:04:05.176Z,44.30
2018-12-08T02:06:31.352Z,47.37
2018-12-08T02:08:57.572Z,46.63
2018-12-08T02:11:25.126Z,37.77
2018-12-08T02:13:51.682Z,36.07
2018-12-08T02:16:17.917Z,41.70
2018-12-08T02:18:44.101Z,32.90
2018-12-08T02:21:10.267Z,38.97
2018-12-08T02:23:36.505Z,28.80
2018-12-08T02:26:02.683Z,22.53
2018-12-08T02:28:28.877Z,34.03
2018-12-08T02:30:55.111Z,36.17
2018-12-08T02:33:21.331Z,38.10
2018-12-08T02:35:47.513Z,33.20
2018-12-08T02:38:13.736Z,22.20
2018-12-08T02:43:16.210Z,14.30
2018-12-08T02:45:42.365Z,11.67
2018-12-08T02:48:08.520Z,7.93
2018-12-08T02:50:34.722Z,7.10
2018-12-08T02:53:00.899Z,9.37
2018-12-08T02:55:27.081Z,16.90
2018-12-08T02:57:53.291Z,16.03
2018-12-08T03:00:19.489Z,14.03
2018-12-08T03:02:45.672Z,22.33
2018-12-08T03:05:11.904Z,12.27
2018-12-08T03:07:39.014Z,14.97
2018-12-08T03:10:05.338Z,43.00
2018-12-08T03:13:13.089Z,29.30
2018-12-08T03:15:39.236Z,17.83
2018-12-08T03:18:05.397Z,23.47
2018-12-08T03:20:31.582Z,18.17
2018-12-08T03:22:57.718Z,19.07
2018-12-08T03:25:23.842Z,27.23
2018-12-08T03:27:50.031Z,33.67
2018-12-08T03:30:16.194Z,33.17
2018-12-08T03:32:42.338Z,30.13
2018-12-08T03:35:08.513Z,34.03
2018-12-08T03:37:34.669Z,37.37
2018-12-08T03:40:00.828Z,37.57
2018-12-08T03:42:27.129Z,67.40
2018-12-08T03:44:53.273Z,41.23
2018-12-08T03:47:19.425Z,32.53
2018-12-08T03:49:45.625Z,36.70
2018-12-08T03:52:11.765Z,44.97
2018-12-08T03:54:37.922Z,39.97
2018-12-08T03:57:04.145Z,30.23
2018-12-08T03:59:30.315Z,35.10
2018-12-08T04:01:56.463Z,39.50
2018-12-08T04:04:22.686Z,52.30
2018-12-08T04:06:48.878Z,59.53
2018-12-08T04:09:15.067Z,40.63
2018-12-08T04:11:41.273Z,48.77
2018-12-08T04:14:07.481Z,43.03
2018-12-08T04:16:33.700Z,40.77
2018-12-08T04:18:59.937Z,36.07
2018-12-08T04:21:26.096Z,37.60
2018-12-08T04:23:52.254Z,42.00
2018-12-08T04:26:18.454Z,36.17
2018-12-08T04:28:44.625Z,41.83
2018-12-08T04:31:10.775Z,38.63
2018-12-08T04:33:36.961Z,56.40
2018-12-08T04:36:03.139Z,52.90
2018-12-08T04:38:29.305Z,54.20
2018-12-08T04:40:55.485Z,47.70
2018-12-08T04:43:21.645Z,49.97
2018-12-08T04:45:47.825Z,43.27
2018-12-08T04:48:14.053Z,50.93
2018-12-08T04:50:40.261Z,48.83
2018-12-08T04:53:06.498Z,59.83
2018-12-08T04:55:32.688Z,64.77
2018-12-08T04:57:58.844Z,86.20
2018-12-08T05:00:25.013Z,70.70
2018-12-08T05:02:51.235Z,60.03
2018-12-08T05:05:17.387Z,71.50
2018-12-08T05:07:43.525Z,76.00
2018-12-08T05:10:09.724Z,62.87
2018-12-08T05:12:35.878Z,66.27
2018-12-08T05:15:02.220Z,66.00
2018-12-08T05:17:28.405Z,82.77
2018-12-08T05:19:54.589Z,74.60
2018-12-08T05:22:20.765Z,71.27
2018-12-08T05:24:46.970Z,70.17
2018-12-08T05:27:13.157Z,77.40
2018-12-08T05:29:39.337Z,73.27
2018-12-08T05:32:05.589Z,59.53
2018-12-08T05:34:31.755Z,87.93
2018-12-08T05:36:57.917Z,67.13
2018-12-08T05:39:24.097Z,73.13
2018-12-08T05:41:50.265Z,71.67
2018-12-08T05:44:20.882Z,83.77
2018-12-08T05:46:50.983Z,99.60
2018-12-08T05:49:21.167Z,80.47
2018-12-08T05:51:50.609Z,92.50
2018-12-08T05:54:21.115Z,84.20
2018-12-08T05:56:50.115Z,72.47
2018-12-08T05:59:16.733Z,74.30
2018-12-08T06:01:46.813Z,84.27
2018-12-08T06:04:16.199Z,90.10
2018-12-08T06:06:42.421Z,89.80
2018-12-08T06:09:09.238Z,97.37
2018-12-08T06:11:35.373Z,92.97
2018-12-08T06:14:01.679Z,85.10
2018-12-08T06:16:27.860Z,104.00
2018-12-08T06:18:54.011Z,82.17
2018-12-08T06:21:26.052Z,81.87
2018-12-08T06:23:52.287Z,98.63
2018-12-08T06:26:18.960Z,89.83
2018-12-08T06:28:45.101Z,62.07
2018-12-08T06:31:11.325Z,85.87
2018-12-08T06:33:37.456Z,71.87
2018-12-08T06:36:03.640Z,89.77
2018-12-08T06:38:29.826Z,130.07
2018-12-08T06:40:55.977Z,78.20
2018-12-08T06:43:22.109Z,162.33
2018-12-08T06:45:48.429Z,114.60
2018-12-08T06:48:14.584Z,57.47
2018-12-08T06:50:40.741Z,63.43
2018-12-08T06:53:06.926Z,58.90
2018-12-08T06:55:33.063Z,61.17
2018-12-08T06:57:59.242Z,60.30
2018-12-08T07:00:25.441Z,66.63
2018-12-08T07:02:51.885Z,72.50
2018-12-08T07:05:18.090Z,70.90
2018-12-08T07:07:44.245Z,83.33
2018-12-08T07:10:10.393Z,103.07
2018-12-08T07:12:37.155Z,108.77
2018-12-08T07:15:03.760Z,91.53
2018-12-08T07:17:29.913Z,91.80
2018-12-08T07:19:56.049Z,87.13
2018-12-08T07:22:22.261Z,110.00
2018-12-08T07:24:48.429Z,124.47
2018-12-08T07:27:14.612Z,122.67
2018-12-08T07:29:41.385Z,109.73
2018-12-08T07:32:07.547Z,94.43
2018-12-08T07:34:33.735Z,114.00
2018-12-08T07:36:59.917Z,108.67
2018-12-08T07:39:26.081Z,88.20
2018-12-08T07:41:52.226Z,95.30
2018-12-08T07:44:18.404Z,83.50
2018-12-08T07:46:44.549Z,113.30
2018-12-08T07:49:10.757Z,108.00
2018-12-08T07:51:36.962Z,104.80
2018-12-08T07:54:03.266Z,76.27
2018-12-08T07:56:29.418Z,85.53
2018-12-08T07:58:55.610Z,89.87
2018-12-08T08:01:21.793Z,116.97
2018-12-08T08:03:47.965Z,119.17
2018-12-08T08:06:14.154Z,105.47
2018-12-08T08:08:40.298Z,106.07
2018-12-08T08:11:06.457Z,74.17
2018-12-08T08:13:32.644Z,61.60
2018-12-08T08:15:58.841Z,61.20
2018-12-08T08:18:24.968Z,54.37
2018-12-08T08:20:51.121Z,38.63
2018-12-08T08:23:17.257Z,47.23
2018-12-08T08:25:43.396Z,48.77
2018-12-08T08:28:09.604Z,47.90
2018-12-08T08:30:35.777Z,47.23
2018-12-08T08:33:01.969Z,43.67
2018-12-08T08:35:28.161Z,42.40
2018-12-08T08:37:54.306Z,40.10
2018-12-08T08:40:20.456Z,40.10
2018-12-08T08:42:46.646Z,32.97
2018-12-08T08:45:12.793Z,33.40
2018-12-08T08:47:38.933Z,28.47
2018-12-08T08:50:07.106Z,41.37
2018-12-08T08:52:33.278Z,34.73
2018-12-08T08:54:59.431Z,39.70
2018-12-08T08:57:25.669Z,30.10
2018-12-08T08:59:51.813Z,38.10
2018-12-08T09:02:17.961Z,74.57
2018-12-08T09:04:44.220Z,76.13
2018-12-08T09:07:10.383Z,86.20
2018-12-08T09:09:36.702Z,84.87
2018-12-08T09:12:03.066Z,96.63
2018-12-08T09:14:29.229Z,124.67
2018-12-08T09:16:55.397Z,144.30
2018-12-08T09:19:21.570Z,103.53
2018-12-08T09:21:47.713Z,106.53
2018-12-08T09:24:13.853Z,121.83
2018-12-08T09:26:40.166Z,130.57
2018-12-08T09:29:06.387Z,74.03
2018-12-08T09:31:32.539Z,92.93
2018-12-08T09:33:58.725Z,93.57
2018-12-08T09:36:24.892Z,73.10
2018-12-08T09:38:51.058Z,90.27
2018-12-08T09:41:17.236Z,87.87
2018-12-08T09:43:43.409Z,85.77
2018-12-08T09:46:09.548Z,73.30
2018-12-08T09:48:35.737Z,60.20
2018-12-08T09:51:01.891Z,49.43
2018-12-08T09:53:28.040Z,44.43
2018-12-08T09:55:54.257Z,41.23
2018-12-08T09:58:20.429Z,56.07
2018-12-08T10:00:46.577Z,93.80
2018-12-08T10:03:12.845Z,73.03
2018-12-08T10:05:39.065Z,74.60
2018-12-08T10:08:05.215Z,64.07
2018-12-08T10:10:31.408Z,53.07
2018-12-08T10:12:57.568Z,41.07
2018-12-08T10:15:23.741Z,41.80
2018-12-08T10:17:49.937Z,31.30
2018-12-08T10:20:16.086Z,34.23
2018-12-08T10:22:42.320Z,39.73
2018-12-08T10:25:08.586Z,40.03
2018-12-08T10:27:34.729Z,38.37
2018-12-08T10:30:00.857Z,31.60
2018-12-08T10:32:27.053Z,35.97
2018-12-08T10:34:53.222Z,25.97
2018-12-08T10:37:19.365Z,28.60
2018-12-08T10:39:45.585Z,33.63
2018-12-08T10:42:11.721Z,28.30
2018-12-08T10:44:37.902Z,26.03
2018-12-08T10:47:04.247Z,24.83
2018-12-08T10:49:30.409Z,28.73
2018-12-08T10:51:56.560Z,32.07
2018-12-08T10:54:24.743Z,30.73
2018-12-08T10:56:50.927Z,22.87
2018-12-08T10:59:21.311Z,21.53
2018-12-08T11:01:53.618Z,21.30
2018-12-08T11:04:19.780Z,27.87
2018-12-08T11:06:45.961Z,38.70
2018-12-08T11:09:12.185Z,36.17
2018-12-08T11:11:38.346Z,38.87
2018-12-08T11:14:04.543Z,41.33
2018-12-08T11:16:30.724Z,39.53
2018-12-08T11:18:56.879Z,45.97
2018-12-08T11:21:23.107Z,72.57
2018-12-08T11:23:49.318Z,51.53
2018-12-08T11:26:15.471Z,51.30
2018-12-08T11:28:41.658Z,70.57
2018-12-08T11:31:07.874Z,72.27
2018-12-08T11:33:34.030Z,69.53
2018-12-08T11:36:00.205Z,73.03
2018-12-08T11:38:26.401Z,56.73
2018-12-08T11:40:52.573Z,67.33
2018-12-08T11:43:18.722Z,74.83
2018-12-08T11:45:44.937Z,60.13
2018-12-08T11:48:11.121Z,57.40
2018-12-08T11:50:37.349Z,62.37
2018-12-08T11:53:03.573Z,79.13
2018-12-08T11:55:30.344Z,84.07
2018-12-08T11:57:57.091Z,142.80
2018-12-08T12:00:23.310Z,135.87
2018-12-08T12:02:49.466Z,144.27
2018-12-08T12:05:15.627Z,162.80
2018-12-08T12:07:41.857Z,193.57
2018-12-08T12:10:08.116Z,200.43
2018-12-08T12:12:34.277Z,166.23
2018-12-08T12:15:00.440Z,178.50
2018-12-08T12:17:26.589Z,141.20
2018-12-08T12:19:52.738Z,136.83
2018-12-08T12:22:18.909Z,124.93
2018-12-08T12:24:45.132Z,151.80
2018-12-08T12:27:11.297Z,146.57
2018-12-08T12:29:37.545Z,136.67
2018-12-08T12:32:04.604Z,146.30
2018-12-08T12:34:30.865Z,145.47
2018-12-08T12:36:57.065Z,143.77
2018-12-08T12:39:23.215Z,145.07
2018-12-08T12:41:49.361Z,136.90
2018-12-08T12:44:15.531Z,140.20
2018-12-08T12:46:41.684Z,152.03
2018-12-08T12:49:07.850Z,201.03
2018-12-08T12:51:34.033Z,162.30
2018-12-08T12:54:00.186Z,210.03
2018-12-08T12:56:26.340Z,204.03
2018-12-08T12:58:52.545Z,218.13
2018-12-08T13:01:18.717Z,202.80
2018-12-08T13:03:44.870Z,195.93
2018-12-08T13:06:11.198Z,211.17
2018-12-08T13:08:37.346Z,224.93
2018-12-08T13:11:03.518Z,217.37
2018-12-08T13:13:29.689Z,228.30
2018-12-08T13:15:55.844Z,220.20
2018-12-08T13:18:22.013Z,228.07
2018-12-08T13:20:48.198Z,224.77
2018-12-08T13:23:14.341Z,280.10
2018-12-08T13:25:40.489Z,288.97
2018-12-08T13:28:06.677Z,318.37
2018-12-08T13:30:32.862Z,306.80
2018-12-08T13:32:59.020Z,282.37
2018-12-08T13:35:37.401Z,301.40
2018-12-08T13:38:03.533Z,293.77
2018-12-08T13:43:06.499Z,311.67
2018-12-08T13:45:32.670Z,315.50
2018-12-08T13:47:58.818Z,228.07
2018-12-08T13:50:25.006Z,205.10
2018-12-08T13:52:51.157Z,229.77
2018-12-08T13:55:17.445Z,271.27
2018-12-08T13:57:43.634Z,315.53
2018-12-08T14:00:09.820Z,322.47
2018-12-08T14:02:35.984Z,278.37
2018-12-08T14:05:02.289Z,278.90
2018-12-08T14:07:28.440Z,295.80
2018-12-08T14:09:54.623Z,283.57
2018-12-08T14:12:20.805Z,278.83
2018-12-08T14:14:46.965Z,190.40
2018-12-08T14:17:13.130Z,206.37
2018-12-08T14:19:39.333Z,259.93
2018-12-08T14:22:05.503Z,287.03
2018-12-08T14:24:31.673Z,231.83
2018-12-08T14:26:57.869Z,249.07
2018-12-08T14:29:24.014Z,230.40
2018-12-08T14:31:50.564Z,239.50
2018-12-08T14:34:17.083Z,218.60
2018-12-08T14:36:43.238Z,316.50
2018-12-08T14:39:09.377Z,338.67
2018-12-08T14:41:35.551Z,243.20
2018-12-08T14:44:01.741Z,215.83
2018-12-08T14:46:27.901Z,245.87
2018-12-08T14:48:54.117Z,346.67
2018-12-08T14:51:20.262Z,288.00
2018-12-08T14:53:46.435Z,301.57
2018-12-08T14:56:13.117Z,286.80
2018-12-08T14:58:39.270Z,233.60
2018-12-08T15:01:05.453Z,254.37
2018-12-08T15:03:31.681Z,312.10
2018-12-08T15:05:57.817Z,322.67
2018-12-08T15:08:23.973Z,278.97
2018-12-08T15:10:51.153Z,207.93
2018-12-08T15:13:17.397Z,185.63
2018-12-08T15:15:43.569Z,108.17
2018-12-08T15:18:09.773Z,106.33
2018-12-08T15:20:35.934Z,118.93
2018-12-08T15:23:02.081Z,121.23
2018-12-08T15:25:28.281Z,161.67
2018-12-08T15:27:54.436Z,117.63
2018-12-08T15:30:20.595Z,150.13
2018-12-08T15:32:46.772Z,142.20
2018-12-08T15:35:13.053Z,155.03
2018-12-08T15:37:39.258Z,181.73
2018-12-08T15:40:05.913Z,169.70
2018-12-08T15:42:32.072Z,161.27
2018-12-08T15:44:58.349Z,186.97
2018-12-08T15:47:24.513Z,167.07
2018-12-08T15:49:50.661Z,186.20
2018-12-08T15:52:16.938Z,171.73
2018-12-08T15:54:43.114Z,237.63
2018-12-08T15:57:09.281Z,160.40
2018-12-08T15:59:35.441Z,210.50
2018-12-08T16:02:01.771Z,229.30
2018-12-08T16:04:27.905Z,244.90
2018-12-08T16:06:54.076Z,305.40
2018-12-08T16:09:21.774Z,278.00
2018-12-08T16:11:47.929Z,299.47
2018-12-08T16:14:14.081Z,369.10
2018-12-08T16:16:40.302Z,399.33
2018-12-08T16:19:06.471Z,368.47
2018-12-08T16:21:32.674Z,341.50
2018-12-08T16:23:58.866Z,343.50
2018-12-08T16:26:25.049Z,393.90
2018-12-08T16:28:51.194Z,420.37
2018-12-08T16:31:17.419Z,324.03
2018-12-08T16:33:43.568Z,144.47
2018-12-08T16:36:09.720Z,193.83
2018-12-08T16:38:36.026Z,212.30
2018-12-08T16:41:02.182Z,221.63
2018-12-08T16:43:28.373Z,252.93
2018-12-08T16:45:54.565Z,223.50
2018-12-08T16:48:20.875Z,246.37
2018-12-08T16:50:47.040Z,301.53
2018-12-08T16:53:13.225Z,332.60
2018-12-08T16:55:39.385Z,324.30
2018-12-08T16:58:05.588Z,314.03
2018-12-08T17:00:31.853Z,384.47
2018-12-08T17:02:58.013Z,389.10
2018-12-08T17:05:24.194Z,418.90
2018-12-08T17:07:50.371Z,369.83
2018-12-08T17:10:16.574Z,362.97
2018-12-08T17:12:42.765Z,323.77
2018-12-08T17:15:09.205Z,355.17
2018-12-08T17:17:35.364Z,361.40
2018-12-08T17:20:01.683Z,352.13
2018-12-08T17:22:27.863Z,222.93
2018-12-08T17:24:54.032Z,143.77
2018-12-08T17:27:20.316Z,119.07
2018-12-08T17:29:46.513Z,169.73
2018-12-08T17:32:12.673Z,136.73
2018-12-08T17:34:38.889Z,127.73
2018-12-08T17:37:05.201Z,158.90
2018-12-08T17:39:31.360Z,208.13
2018-12-08T17:41:57.512Z,298.37
2018-12-08T17:44:23.660Z,362.53
2018-12-08T17:46:49.857Z,334.23
2018-12-08T17:49:15.997Z,340.33
2018-12-08T17:54:14.058Z,300.77
2018-12-08T17:56:40.230Z,299.90
2018-12-08T17:59:06.435Z,230.70
2018-12-08T18:01:32.618Z,289.63
2018-12-08T18:03:58.790Z,281.67
2018-12-08T18:06:25.130Z,734.67
2018-12-08T18:08:51.314Z,330.40
2018-12-08T18:11:17.477Z,275.43
2018-12-08T18:13:43.650Z,273.07
2018-12-08T18:16:10.526Z,254.47
2018-12-08T18:18:36.710Z,211.20
2018-12-08T18:21:03.181Z,268.17
2018-12-08T18:23:29.497Z,267.47
2018-12-08T18:25:55.654Z,252.57
2018-12-08T18:28:21.836Z,195.03
2018-12-08T18:30:47.986Z,230.77
2018-12-08T18:33:14.149Z,240.67
2018-12-08T18:35:40.333Z,255.10
2018-12-08T18:40:57.798Z,303.80
2018-12-08T18:43:27.001Z,279.23
2018-12-08T18:49:08.957Z,246.40
2018-12-08T18:51:36.063Z,240.77
2018-12-08T18:54:02.222Z,254.90
2018-12-08T18:56:28.438Z,351.40
2018-12-08T18:58:55.256Z,342.23
2018-12-08T19:01:21.640Z,377.77
2018-12-08T19:03:48.445Z,415.10
2018-12-08T19:06:14.628Z,394.80
2018-12-08T19:08:40.785Z,438.40
2018-12-08T19:11:06.970Z,473.33
2018-12-08T19:13:33.155Z,449.43
2018-12-08T19:15:59.865Z,447.37
2018-12-08T19:18:26.043Z,459.23
2018-12-08T19:20:52.197Z,439.57
2018-12-08T19:23:18.354Z,443.37
2018-12-08T19:25:44.531Z,422.60
2018-12-08T19:28:12.138Z,424.20
2018-12-08T19:33:14.929Z,383.40
2018-12-08T19:35:41.209Z,378.07
2018-12-08T19:38:16.050Z,358.27
2018-12-08T19:40:50.530Z,243.60
2018-12-08T19:43:22.458Z,308.43
2018-12-08T19:45:48.623Z,222.80
2018-12-08T19:48:14.789Z,160.77
2018-12-08T19:50:40.994Z,139.07
2018-12-08T19:53:07.171Z,135.77
2018-12-08T19:55:33.410Z,139.13
2018-12-08T19:57:59.594Z,121.00
2018-12-08T20:00:25.750Z,161.37
2018-12-08T20:02:51.943Z,160.13
2018-12-08T20:05:18.204Z,132.10
2018-12-08T20:07:44.373Z,120.30
2018-12-08T20:10:10.537Z,163.10
2018-12-08T20:12:36.719Z,171.57
2018-12-08T20:15:04.532Z,178.47
2018-12-08T20:17:30.676Z,217.77
2018-12-08T20:19:56.853Z,219.03
2018-12-08T20:22:22.998Z,224.17
2018-12-08T20:24:49.157Z,219.45
2018-12-08T20:27:15.343Z,214.63
2018-12-08T20:29:41.481Z,205.40
2018-12-08T20:32:07.637Z,195.37
2018-12-08T20:34:33.816Z,215.70
2018-12-08T20:36:59.969Z,192.30
2018-12-08T20:39:26.109Z,188.83
2018-12-08T20:41:52.337Z,163.97
2018-12-08T20:44:18.509Z,151.47
2018-12-08T20:46:44.655Z,161.67
2018-12-08T20:49:10.849Z,167.17
2018-12-08T20:51:37.270Z,144.27
2018-12-08T20:54:03.408Z,161.60
2018-12-08T20:56:29.597Z,154.67
2018-12-08T20:58:55.744Z,138.20
2018-12-08T21:01:21.928Z,126.70
2018-12-08T21:03:48.114Z,84.00
2018-12-08T21:06:14.277Z,60.17
2018-12-08T21:08:40.430Z,57.67
2018-12-08T21:11:06.613Z,59.97
2018-12-08T21:13:32.753Z,61.33
2018-12-08T21:15:58.906Z,67.43
2018-12-08T21:18:25.071Z,63.67
2018-12-08T21:20:51.233Z,70.97
2018-12-08T21:23:17.392Z,58.90
2018-12-08T21:25:43.584Z,69.77
2018-12-08T21:28:09.733Z,70.27
2018-12-08T21:30:35.894Z,58.70
2018-12-08T21:33:02.094Z,67.70
2018-12-08T21:35:28.238Z,72.10
2018-12-08T21:37:54.386Z,79.17
2018-12-08T21:40:24.385Z,58.07
2018-12-08T21:42:50.545Z,75.77
2018-12-08T21:45:16.694Z,184.90
2018-12-08T21:47:42.904Z,76.57
2018-12-08T21:50:09.082Z,77.83
2018-12-08T21:52:35.231Z,122.23
2018-12-08T21:55:01.409Z,141.00
2018-12-08T21:57:27.565Z,160.73
2018-12-08T21:59:53.716Z,160.23
2018-12-08T22:02:20.012Z,154.90
2018-12-08T22:04:46.158Z,163.47
2018-12-08T22:07:12.325Z,148.17
2018-12-08T22:09:38.535Z,139.10
2018-12-08T22:12:04.733Z,140.57
2018-12-08T22:14:30.890Z,192.75
2018-12-08T22:16:57.825Z,158.13
2018-12-08T22:19:23.987Z,157.37
2018-12-08T22:21:50.138Z,184.03
2018-12-08T22:24:17.543Z,171.70
2018-12-08T22:26:43.720Z,180.10
2018-12-08T22:29:09.864Z,169.40
2018-12-08T22:31:36.093Z,165.53
2018-12-08T22:34:02.390Z,174.23
2018-12-08T22:36:28.539Z,174.00
2018-12-08T22:38:54.725Z,169.03
2018-12-08T22:41:20.874Z,182.53
2018-12-08T22:43:47.057Z,196.50
2018-12-08T22:46:13.241Z,194.60
2018-12-08T22:48:39.390Z,271.00
2018-12-08T22:51:05.557Z,169.23
2018-12-08T22:53:31.725Z,1332.43
2018-12-08T22:55:57.872Z,155.20
2018-12-08T22:58:24.036Z,149.67
2018-12-08T23:00:50.350Z,136.03
2018-12-08T23:03:16.494Z,138.67
2018-12-08T23:05:42.656Z,169.73
2018-12-08T23:08:08.873Z,149.43
2018-12-08T23:10:35.061Z,119.77
2018-12-08T23:13:01.261Z,120.13
2018-12-08T23:15:27.452Z,73.53
2018-12-08T23:17:53.612Z,72.87
2018-12-08T23:20:19.757Z,133.53
2018-12-08T23:22:45.974Z,103.30
2018-12-08T23:25:12.288Z,105.03
2018-12-08T23:27:38.437Z,81.80
2018-12-08T23:30:07.762Z,80.10
2018-12-08T23:32:33.917Z,72.17
2018-12-08T23:35:00.137Z,86.77
2018-12-08T23:37:26.350Z,82.57
2018-12-08T23:39:52.489Z,103.83
2018-12-08T23:42:18.652Z,85.50
2018-12-08T23:44:44.864Z,102.57
2018-12-08T23:47:11.045Z,116.13
2018-12-08T23:49:37.522Z,123.60
2018-12-08T23:52:03.713Z,126.90
2018-12-08T23:54:29.897Z,122.93
2018-12-08T23:56:56.036Z,119.17
2018-12-08T23:59:22.258Z,137.70
